createdAt,value
2022-11-15T00:01:10.845Z,15.30
2022-11-15T00:03:38.816Z,15.30
2022-11-15T00:06:07.310Z,15.40
2022-11-15T00:08:35.244Z,15.30
2022-11-15T00:11:04.629Z,15.30
2022-11-15T00:13:33.046Z,15.30
2022-11-15T00:16:02.211Z,15.20
2022-11-15T00:18:32.325Z,15.00
2022-11-15T00:21:06.940Z,15.00
2022-11-15T00:23:35.145Z,14.90
2022-11-15T00:26:03.550Z,15.00
2022-11-15T00:28:31.694Z,15.00
2022-11-15T00:31:03.103Z,15.10
2022-11-15T00:33:32.927Z,15.30
2022-11-15T00:36:05.534Z,15.30
2022-11-15T00:38:34.803Z,15.30
2022-11-15T00:41:08.916Z,15.30
2022-11-15T00:43:37.636Z,15.30
2022-11-15T00:46:05.558Z,15.30
2022-11-15T00:48:34.757Z,15.50
2022-11-15T00:51:02.597Z,15.70
2022-11-15T00:53:30.789Z,15.60
2022-11-15T00:55:59.023Z,15.40
2022-11-15T00:58:26.890Z,15.50
2022-11-15T01:00:55.661Z,15.40
2022-11-15T01:03:23.636Z,15.50
2022-11-15T01:05:52.848Z,15.50
2022-11-15T01:08:20.690Z,15.50
2022-11-15T01:10:48.551Z,15.40
2022-11-15T01:13:16.408Z,15.40
2022-11-15T01:15:44.483Z,15.70
2022-11-15T01:18:12.322Z,15.80
2022-11-15T01:20:42.856Z,16.00
2022-11-15T01:23:12.349Z,16.00
2022-11-15T01:25:40.215Z,16.10
2022-11-15T01:28:08.062Z,16.20
2022-11-15T01:30:37.571Z,16.20
2022-11-15T01:33:05.420Z,16.50
2022-11-15T01:35:33.336Z,16.60
2022-11-15T01:38:01.202Z,16.70
2022-11-15T01:40:30.384Z,16.70
2022-11-15T01:42:58.222Z,16.70
2022-11-15T01:45:26.101Z,16.60
2022-11-15T01:47:56.012Z,16.50
2022-11-15T01:50:27.955Z,16.30
2022-11-15T01:52:56.162Z,16.50
2022-11-15T01:55:27.074Z,16.40
2022-11-15T01:57:59.931Z,16.30
2022-11-15T02:00:27.818Z,16.20
2022-11-15T02:02:55.813Z,16.10
2022-11-15T02:05:23.793Z,15.90
2022-11-15T02:07:51.987Z,15.80
2022-11-15T02:10:22.066Z,15.90
2022-11-15T02:12:50.418Z,16.10
2022-11-15T02:15:19.942Z,16.10
2022-11-15T02:18:04.804Z,16.20
2022-11-15T02:20:52.222Z,16.40
2022-11-15T02:23:51.879Z,16.50
2022-11-15T02:26:48.219Z,16.60
2022-11-15T02:29:25.677Z,16.60
2022-11-15T02:32:02.735Z,16.60
2022-11-15T02:34:37.250Z,16.50
2022-11-15T02:37:13.582Z,16.50
2022-11-15T02:39:48.794Z,16.40
2022-11-15T02:42:39.415Z,16.20
2022-11-15T02:45:11.202Z,16.20
2022-11-15T02:47:45.527Z,16.40
2022-11-15T02:50:17.729Z,16.30
2022-11-15T02:52:47.929Z,16.20
2022-11-15T02:55:30.604Z,16.20
2022-11-15T02:58:22.425Z,16.20
2022-11-15T03:00:57.843Z,16.10
2022-11-15T03:03:42.483Z,16.20
2022-11-15T03:06:22.115Z,16.20
2022-11-15T03:08:59.753Z,16.20
2022-11-15T03:11:27.948Z,16.20
2022-11-15T03:14:00.527Z,16.50
2022-11-15T03:16:32.713Z,16.60
2022-11-15T03:19:07.537Z,16.70
2022-11-15T03:21:36.823Z,16.60
2022-11-15T03:24:08.268Z,16.60
2022-11-15T03:26:39.646Z,16.60
2022-11-15T03:29:13.566Z,16.40
2022-11-15T03:31:51.205Z,16.30
2022-11-15T03:34:28.261Z,16.30
2022-11-15T03:36:56.592Z,16.40
2022-11-15T03:39:25.492Z,16.40
2022-11-15T03:42:03.753Z,16.40
2022-11-15T03:44:41.430Z,16.40
2022-11-15T03:47:13.388Z,16.40
2022-11-15T03:49:46.960Z,16.40
2022-11-15T03:52:14.977Z,16.40
2022-11-15T03:54:51.300Z,16.50
2022-11-15T03:57:19.526Z,16.50
2022-11-15T03:59:47.373Z,16.50
2022-11-15T04:02:15.498Z,16.50
2022-11-15T04:04:44.660Z,16.50
2022-11-15T04:07:12.658Z,16.40
2022-11-15T04:10:02.955Z,16.50
2022-11-15T04:12:33.598Z,16.70
2022-11-15T04:15:09.393Z,16.80
2022-11-15T04:17:39.257Z,16.70
2022-11-15T04:20:29.918Z,16.70
2022-11-15T04:23:12.885Z,16.60
2022-11-15T04:25:41.153Z,16.50
2022-11-15T04:28:09.200Z,16.60
2022-11-15T04:30:37.202Z,16.50
2022-11-15T04:33:05.491Z,16.30
2022-11-15T04:35:34.962Z,16.20
2022-11-15T04:38:03.806Z,16.10
2022-11-15T04:40:31.647Z,16.00
2022-11-15T04:43:03.656Z,16.00
2022-11-15T04:45:32.302Z,16.30
2022-11-15T04:48:00.158Z,16.30
2022-11-15T04:50:27.965Z,16.30
2022-11-15T04:52:57.141Z,16.30
2022-11-15T04:55:24.986Z,16.30
2022-11-15T04:58:00.755Z,16.40
2022-11-15T05:00:29.754Z,16.40
2022-11-15T05:03:15.611Z,16.40
2022-11-15T05:05:43.790Z,16.40
2022-11-15T05:08:12.999Z,16.30
2022-11-15T05:10:40.852Z,16.10
2022-11-15T05:13:08.694Z,16.10
2022-11-15T05:15:36.555Z,16.00
2022-11-15T05:18:04.480Z,16.10
2022-11-15T05:20:32.354Z,16.10
2022-11-15T05:23:00.280Z,16.20
2022-11-15T05:25:29.795Z,16.10
2022-11-15T05:27:58.021Z,16.20
2022-11-15T05:30:25.928Z,16.20
2022-11-15T05:32:53.799Z,16.30
2022-11-15T05:35:27.666Z,16.50
2022-11-15T05:37:55.535Z,16.50
2022-11-15T05:40:23.590Z,16.60
2022-11-15T05:42:52.861Z,16.70
2022-11-15T05:45:26.548Z,16.70
2022-11-15T05:47:56.325Z,16.70
2022-11-15T05:50:24.488Z,16.70
2022-11-15T05:52:53.283Z,16.80
2022-11-15T05:55:21.241Z,16.70
2022-11-15T05:57:49.262Z,16.90
2022-11-15T06:00:19.175Z,17.10
2022-11-15T06:02:47.032Z,17.10
2022-11-15T06:05:14.999Z,17.00
2022-11-15T06:07:42.856Z,16.90
2022-11-15T06:10:11.257Z,16.90
2022-11-15T06:12:39.114Z,16.90
2022-11-15T06:15:07.991Z,16.90
2022-11-15T06:17:37.216Z,17.10
2022-11-15T06:20:05.582Z,17.20
2022-11-15T06:22:33.617Z,17.30
2022-11-15T06:25:05.142Z,17.40
2022-11-15T06:27:33.385Z,17.50
2022-11-15T06:30:01.179Z,17.30
2022-11-15T06:32:30.746Z,17.30
2022-11-15T06:34:59.909Z,17.40
2022-11-15T06:37:27.726Z,17.50
2022-11-15T06:39:55.557Z,17.50
2022-11-15T06:42:23.380Z,17.50
2022-11-15T06:44:51.189Z,17.50
2022-11-15T06:47:19.075Z,17.60
2022-11-15T06:49:46.933Z,17.70
2022-11-15T06:52:16.134Z,17.60
2022-11-15T06:54:44.025Z,17.70
2022-11-15T06:57:11.841Z,17.70
2022-11-15T06:59:40.760Z,17.90
2022-11-15T07:02:13.493Z,17.90
2022-11-15T07:04:41.485Z,17.90
2022-11-15T07:07:09.381Z,17.80
2022-11-15T07:09:38.586Z,17.60
2022-11-15T07:12:07.990Z,17.60
2022-11-15T07:14:36.014Z,17.60
2022-11-15T07:17:06.121Z,17.70
2022-11-15T07:19:34.044Z,17.60
2022-11-15T07:22:01.882Z,17.80
2022-11-15T07:24:29.729Z,17.80
2022-11-15T07:26:59.275Z,17.80
2022-11-15T07:29:27.293Z,17.80
2022-11-15T07:31:55.278Z,18.00
2022-11-15T07:34:23.119Z,18.00
2022-11-15T07:36:50.972Z,18.00
2022-11-15T07:39:18.812Z,18.10
2022-11-15T07:41:48.784Z,18.20
2022-11-15T07:44:17.975Z,18.20
2022-11-15T07:46:45.827Z,18.20
2022-11-15T07:49:13.752Z,18.10
2022-11-15T07:51:41.657Z,18.20
2022-11-15T07:54:09.623Z,18.20
2022-11-15T07:56:37.531Z,18.00
2022-11-15T07:59:05.413Z,17.70
2022-11-15T08:01:34.763Z,17.70
2022-11-15T08:04:02.710Z,17.80
2022-11-15T08:06:31.066Z,17.80
2022-11-15T08:08:58.921Z,17.90
2022-11-15T08:11:26.809Z,17.80
2022-11-15T08:13:54.676Z,17.90
2022-11-15T08:16:22.589Z,17.90
2022-11-15T08:18:51.837Z,18.00
2022-11-15T08:21:22.031Z,17.80
2022-11-15T08:23:50.549Z,17.90
2022-11-15T08:26:18.523Z,18.00
2022-11-15T08:28:46.395Z,18.10
2022-11-15T08:31:17.549Z,18.10
2022-11-15T08:33:46.477Z,18.20
2022-11-15T08:36:17.936Z,18.10
2022-11-15T08:38:45.802Z,18.20
2022-11-15T08:41:15.969Z,18.20
2022-11-15T08:43:43.803Z,18.20
2022-11-15T08:46:14.748Z,18.20
2022-11-15T08:48:42.632Z,18.20
2022-11-15T08:51:10.471Z,18.10
2022-11-15T08:53:39.675Z,18.20
2022-11-15T08:56:10.064Z,18.30
2022-11-15T08:58:38.210Z,18.40
2022-11-15T09:01:07.091Z,18.40
2022-11-15T09:03:34.962Z,18.60
2022-11-15T09:06:03.321Z,18.60
2022-11-15T09:08:46.939Z,18.70
2022-11-15T09:11:17.397Z,18.70
2022-11-15T09:13:45.467Z,18.70
2022-11-15T09:16:13.881Z,18.90
2022-11-15T09:18:41.725Z,18.90
2022-11-15T09:21:10.304Z,18.90
2022-11-15T09:23:38.161Z,19.00
2022-11-15T09:26:07.203Z,19.10
2022-11-15T09:28:37.740Z,19.10
2022-11-15T09:31:07.326Z,19.10
2022-11-15T09:33:35.599Z,19.10
2022-11-15T09:36:05.041Z,18.90
2022-11-15T09:38:33.740Z,18.90
2022-11-15T09:41:22.509Z,18.90
2022-11-15T09:44:03.382Z,18.80
2022-11-15T09:46:44.420Z,18.50
2022-11-15T09:49:16.012Z,18.40
2022-11-15T09:51:48.537Z,18.40
2022-11-15T09:57:19.717Z,18.50
2022-11-15T10:00:23.838Z,18.70
2022-11-15T10:03:06.341Z,18.70
2022-11-15T10:05:39.314Z,18.80
2022-11-15T10:08:22.740Z,18.90
2022-11-15T10:11:15.821Z,19.10
2022-11-15T10:13:45.619Z,19.30
2022-11-15T10:16:43.288Z,19.30
2022-11-15T10:19:23.095Z,19.40
2022-11-15T10:22:01.972Z,19.30
2022-11-15T10:24:34.434Z,19.10
2022-11-15T10:27:02.961Z,19.30
2022-11-15T10:29:30.841Z,19.10
2022-11-15T10:32:00.042Z,19.10
2022-11-15T10:34:28.589Z,19.10
2022-11-15T10:36:58.074Z,19.10
2022-11-15T10:39:26.808Z,19.20
2022-11-15T10:41:55.043Z,19.20
2022-11-15T10:44:26.654Z,19.20
2022-11-15T10:47:28.150Z,19.10
2022-11-15T10:50:09.214Z,19.00
2022-11-15T10:52:39.025Z,18.90
2022-11-15T10:55:24.483Z,18.80
2022-11-15T10:57:54.950Z,18.80
2022-11-15T11:00:34.538Z,18.80
2022-11-15T11:03:06.788Z,19.00
2022-11-15T11:05:41.817Z,19.10
2022-11-15T11:08:24.156Z,19.10
2022-11-15T11:11:01.403Z,19.30
2022-11-15T11:13:32.334Z,19.30
2022-11-15T11:16:11.184Z,19.40
2022-11-15T11:18:47.820Z,19.40
2022-11-15T11:21:19.262Z,19.30
2022-11-15T11:23:54.051Z,18.90
2022-11-15T11:26:37.458Z,18.90
2022-11-15T11:29:18.121Z,18.80
2022-11-15T11:31:54.790Z,18.80
2022-11-15T11:34:38.766Z,18.80
2022-11-15T11:37:16.088Z,18.60
2022-11-15T11:39:57.898Z,18.80
2022-11-15T11:42:38.318Z,18.60
2022-11-15T11:45:17.978Z,18.90
2022-11-15T11:47:50.529Z,19.00
2022-11-15T11:50:21.950Z,19.20
2022-11-15T11:53:03.577Z,19.40
2022-11-15T11:55:39.595Z,19.70
2022-11-15T11:58:15.216Z,19.70
2022-11-15T12:00:48.166Z,19.70
2022-11-15T12:03:22.481Z,19.80
2022-11-15T12:05:56.270Z,19.80
2022-11-15T12:08:33.609Z,19.50
2022-11-15T12:11:08.360Z,19.50
2022-11-15T12:13:37.757Z,19.40
2022-11-15T12:16:12.898Z,19.30
2022-11-15T12:18:40.939Z,19.30
2022-11-15T12:21:17.369Z,19.70
2022-11-15T12:23:50.642Z,19.70
2022-11-15T12:26:22.412Z,19.70
2022-11-15T12:29:06.807Z,19.30
2022-11-15T12:31:40.529Z,19.50
2022-11-15T12:34:30.882Z,19.70
2022-11-15T12:37:00.093Z,20.00
2022-11-15T12:40:03.693Z,20.20
2022-11-15T12:42:42.875Z,20.40
2022-11-15T12:45:26.887Z,20.40
2022-11-15T12:47:54.870Z,20.40
2022-11-15T12:50:55.068Z,20.40
2022-11-15T12:53:31.896Z,20.40
2022-11-15T12:56:20.481Z,20.30
2022-11-15T12:58:50.980Z,20.10
2022-11-15T13:01:56.427Z,20.00
2022-11-15T13:04:27.374Z,20.00
2022-11-15T13:06:57.003Z,19.90
2022-11-15T13:09:55.501Z,19.70
2022-11-15T13:12:52.692Z,19.70
2022-11-15T13:15:54.429Z,19.60
2022-11-15T13:18:38.241Z,19.70
2022-11-15T13:21:44.465Z,19.80
2022-11-15T13:24:17.733Z,19.90
2022-11-15T13:26:47.890Z,19.90
2022-11-15T13:29:20.547Z,20.00
2022-11-15T13:31:49.255Z,19.10
2022-11-15T13:34:49.986Z,19.00
2022-11-15T13:37:31.840Z,18.90
2022-11-15T13:40:17.876Z,18.80
2022-11-15T13:42:47.120Z,18.70
2022-11-15T13:45:17.300Z,18.70
2022-11-15T13:47:45.185Z,18.60
2022-11-15T13:50:13.954Z,18.50
2022-11-15T13:52:45.223Z,18.40
2022-11-15T13:55:17.295Z,18.60
2022-11-15T13:57:48.066Z,18.50
2022-11-15T14:00:35.806Z,18.50
2022-11-15T14:03:20.038Z,18.50
2022-11-15T14:06:02.017Z,18.40
2022-11-15T14:08:30.308Z,18.00
2022-11-15T14:11:15.722Z,18.10
2022-11-15T14:14:01.863Z,17.90
2022-11-15T14:16:36.298Z,18.20
2022-11-15T14:19:05.979Z,18.30
2022-11-15T14:21:34.521Z,17.90
2022-11-15T14:24:18.641Z,17.30
2022-11-15T14:26:47.010Z,17.20
2022-11-15T14:29:26.705Z,17.40
2022-11-15T14:31:54.774Z,17.90
2022-11-15T14:34:23.217Z,17.80
2022-11-15T14:36:51.106Z,17.80
2022-11-15T14:39:18.976Z,17.70
2022-11-15T14:41:46.821Z,17.90
2022-11-15T14:44:19.328Z,17.80
2022-11-15T14:46:49.077Z,17.50
2022-11-15T14:49:17.246Z,17.30
2022-11-15T14:51:45.121Z,17.20
2022-11-15T14:54:13.116Z,17.40
2022-11-15T14:56:41.449Z,17.40
2022-11-15T14:59:09.295Z,17.70
2022-11-15T15:01:37.155Z,17.60
2022-11-15T15:04:06.342Z,17.30
2022-11-15T15:06:34.323Z,17.20
2022-11-15T15:09:02.284Z,17.40
2022-11-15T15:11:32.841Z,17.30
2022-11-15T15:14:02.121Z,17.30
2022-11-15T15:16:29.971Z,17.30
2022-11-15T15:18:58.082Z,16.90
2022-11-15T15:21:35.338Z,17.10
2022-11-15T15:24:05.229Z,17.10
2022-11-15T15:26:34.723Z,17.00
2022-11-15T15:29:02.579Z,17.00
2022-11-15T15:31:30.421Z,16.90
2022-11-15T15:33:58.244Z,16.90
2022-11-15T15:36:27.476Z,16.70
2022-11-15T15:38:55.436Z,16.70
2022-11-15T15:41:23.286Z,16.80
2022-11-15T15:43:51.129Z,16.80
2022-11-15T15:46:20.650Z,16.70
2022-11-15T15:48:48.864Z,16.80
2022-11-15T15:51:20.502Z,16.90
2022-11-15T15:53:51.639Z,17.20
2022-11-15T15:56:19.577Z,17.30
2022-11-15T15:58:47.518Z,17.00
2022-11-15T16:01:15.400Z,16.80
2022-11-15T16:03:43.295Z,16.90
2022-11-15T16:06:37.241Z,17.10
2022-11-15T16:09:16.045Z,17.10
2022-11-15T16:11:46.207Z,17.10
2022-11-15T16:14:14.347Z,17.10
2022-11-15T16:16:42.492Z,17.00
2022-11-15T16:19:12.367Z,17.20
2022-11-15T16:21:40.218Z,17.20
2022-11-15T16:24:09.523Z,17.00
2022-11-15T16:26:38.794Z,17.00
2022-11-15T16:29:07.856Z,17.00
2022-11-15T16:31:35.749Z,17.20
2022-11-15T16:34:03.658Z,17.20
2022-11-15T16:36:34.279Z,17.40
2022-11-15T16:39:04.834Z,17.40
2022-11-15T16:41:34.057Z,17.50
2022-11-15T16:44:01.972Z,17.70
2022-11-15T16:46:30.182Z,17.70
2022-11-15T16:48:58.426Z,17.50
2022-11-15T16:51:26.528Z,17.30
2022-11-15T16:53:54.374Z,17.10
2022-11-15T16:56:26.528Z,17.20
2022-11-15T16:58:58.489Z,17.30
2022-11-15T17:01:28.177Z,17.30
2022-11-15T17:03:56.790Z,17.30
2022-11-15T17:06:25.974Z,17.20
2022-11-15T17:08:54.262Z,17.10
2022-11-15T17:11:23.746Z,17.10
2022-11-15T17:13:51.574Z,17.10
2022-11-15T17:16:20.758Z,17.20
2022-11-15T17:18:52.638Z,17.20
2022-11-15T17:21:22.621Z,17.00
2022-11-15T17:23:50.502Z,17.00
2022-11-15T17:26:29.422Z,17.20
2022-11-15T17:29:00.097Z,17.40
2022-11-15T17:31:31.170Z,17.40
2022-11-15T17:33:59.013Z,17.40
2022-11-15T17:36:26.843Z,17.40
2022-11-15T17:38:59.253Z,17.20
2022-11-15T17:41:28.833Z,17.10
2022-11-15T17:43:58.912Z,17.20
2022-11-15T17:46:28.031Z,17.40
2022-11-15T17:48:58.262Z,17.20
2022-11-15T17:51:26.653Z,17.00
2022-11-15T17:53:54.636Z,16.90
2022-11-15T17:56:26.219Z,16.70
2022-11-15T17:58:56.130Z,16.60
2022-11-15T18:01:25.910Z,16.50
2022-11-15T18:03:54.717Z,16.50
2022-11-15T18:06:25.724Z,16.70
2022-11-15T18:08:55.855Z,17.00
2022-11-15T18:11:25.849Z,16.80
2022-11-15T18:13:56.060Z,16.80
2022-11-15T18:16:26.010Z,16.90
2022-11-15T18:18:54.558Z,16.50
2022-11-15T18:21:25.466Z,16.10
2022-11-15T18:23:56.702Z,16.20
2022-11-15T18:26:27.587Z,16.40
2022-11-15T18:28:57.998Z,16.60
2022-11-15T18:31:28.110Z,16.70
2022-11-15T18:33:56.699Z,16.60
2022-11-15T18:36:27.656Z,16.50
2022-11-15T18:38:56.470Z,16.70
2022-11-15T18:41:28.222Z,17.00
2022-11-15T18:43:56.824Z,17.40
2022-11-15T18:46:26.979Z,17.90
2022-11-15T18:48:55.851Z,18.00
2022-11-15T18:51:26.935Z,17.90
2022-11-15T18:53:55.812Z,17.80
2022-11-15T18:56:25.133Z,17.70
2022-11-15T18:58:55.099Z,17.80
2022-11-15T19:01:25.604Z,17.80
2022-11-15T19:03:55.219Z,17.80
2022-11-15T19:06:25.636Z,17.70
2022-11-15T19:08:56.571Z,17.80
2022-11-15T19:11:28.626Z,17.70
2022-11-15T19:13:57.606Z,17.70
2022-11-15T19:16:25.567Z,17.80
2022-11-15T19:18:56.753Z,17.60
2022-11-15T19:21:25.993Z,17.50
2022-11-15T19:23:55.445Z,17.30
2022-11-15T19:26:24.665Z,17.20
2022-11-15T19:28:53.894Z,17.00
2022-11-15T19:31:23.531Z,16.90
2022-11-15T19:33:52.620Z,16.80
2022-11-15T19:36:22.818Z,17.00
2022-11-15T19:38:50.977Z,17.20
2022-11-15T19:41:21.923Z,17.20
2022-11-15T19:43:50.862Z,17.30
2022-11-15T19:46:20.433Z,17.40
2022-11-15T19:48:48.975Z,17.40
2022-11-15T19:51:19.153Z,17.40
2022-11-15T19:53:47.100Z,17.60
2022-11-15T19:56:17.299Z,17.60
2022-11-15T19:58:47.147Z,17.70
2022-11-15T20:01:19.843Z,17.40
2022-11-15T20:03:50.001Z,17.50
2022-11-15T20:06:19.895Z,17.50
2022-11-15T20:08:48.162Z,17.60
2022-11-15T20:11:17.163Z,17.50
2022-11-15T20:13:46.675Z,17.40
2022-11-15T20:16:17.713Z,17.60
2022-11-15T20:18:45.945Z,17.70
2022-11-15T20:21:14.146Z,17.60
2022-11-15T20:23:42.722Z,17.40
2022-11-15T20:26:11.420Z,17.50
2022-11-15T20:28:40.571Z,17.50
2022-11-15T20:31:11.349Z,17.40
2022-11-15T20:33:39.213Z,17.50
2022-11-15T20:36:08.380Z,17.70
2022-11-15T20:38:37.334Z,17.70
2022-11-15T20:41:05.657Z,17.60
2022-11-15T20:43:33.662Z,17.70
2022-11-15T20:46:01.501Z,17.60
2022-11-15T20:48:31.284Z,17.60
2022-11-15T20:51:06.414Z,17.50
2022-11-15T20:53:34.566Z,17.70
2022-11-15T20:56:08.256Z,17.70
2022-11-15T20:58:36.635Z,17.60
2022-11-15T21:01:05.456Z,17.60
2022-11-15T21:03:35.794Z,17.50
2022-11-15T21:06:04.377Z,17.60
2022-11-15T21:08:52.490Z,17.50
2022-11-15T21:11:38.677Z,17.60
2022-11-15T21:14:09.489Z,17.40
2022-11-15T21:16:37.692Z,17.40
2022-11-15T21:19:07.369Z,17.40
2022-11-15T21:21:36.001Z,17.40
2022-11-15T21:24:04.552Z,17.50
2022-11-15T21:26:32.487Z,17.40
2022-11-15T21:29:00.276Z,17.40
2022-11-15T21:31:28.210Z,17.40
2022-11-15T21:33:56.058Z,17.40
2022-11-15T21:36:25.948Z,17.40
2022-11-15T21:38:54.581Z,17.40
2022-11-15T21:41:22.452Z,17.50
2022-11-15T21:43:50.305Z,17.40
2022-11-15T21:46:18.168Z,17.40
2022-11-15T21:48:46.063Z,17.20
2022-11-15T21:51:14.015Z,17.30
2022-11-15T21:53:43.259Z,17.40
2022-11-15T21:56:11.904Z,17.40
2022-11-15T21:58:40.542Z,17.20
2022-11-15T22:01:26.665Z,17.30
2022-11-15T22:03:54.636Z,17.30
2022-11-15T22:06:22.591Z,17.20
2022-11-15T22:08:51.907Z,17.20
2022-11-15T22:11:19.781Z,17.20
2022-11-15T22:13:47.673Z,17.10
2022-11-15T22:16:15.502Z,17.10
2022-11-15T22:18:43.372Z,17.10
2022-11-15T22:21:13.382Z,17.00
2022-11-15T22:23:41.641Z,16.90
2022-11-15T22:26:14.179Z,16.90
2022-11-15T22:28:43.759Z,16.60
2022-11-15T22:31:12.065Z,16.50
2022-11-15T22:33:40.761Z,16.30
2022-11-15T22:36:09.395Z,16.40
2022-11-15T22:38:37.517Z,16.30
2022-11-15T22:41:05.654Z,16.40
2022-11-15T22:43:35.040Z,16.50
2022-11-15T22:46:04.300Z,16.50
2022-11-15T22:48:34.303Z,16.20
2022-11-15T22:51:02.784Z,16.20
2022-11-15T22:53:31.301Z,16.30
2022-11-15T22:56:00.596Z,16.20
2022-11-15T22:58:30.493Z,16.00
2022-11-15T23:01:01.923Z,15.70
2022-11-15T23:03:30.583Z,15.50
2022-11-15T23:06:02.844Z,15.40
2022-11-15T23:08:31.057Z,15.30
2022-11-15T23:11:18.469Z,15.20
2022-11-15T23:13:46.281Z,15.10
2022-11-15T23:16:25.783Z,15.00
2022-11-15T23:18:58.364Z,14.90
2022-11-15T23:21:45.758Z,14.90
2022-11-15T23:24:15.078Z,14.80
2022-11-15T23:26:44.229Z,14.80
2022-11-15T23:29:14.437Z,14.60
2022-11-15T23:32:02.803Z,14.50
2022-11-15T23:34:31.598Z,14.70
2022-11-15T23:36:59.517Z,15.00
2022-11-15T23:39:27.764Z,15.10
2022-11-15T23:41:55.684Z,15.00
2022-11-15T23:44:23.572Z,14.90
2022-11-15T23:46:53.227Z,14.90
2022-11-15T23:49:21.581Z,14.90
2022-11-15T23:51:49.731Z,14.80
2022-11-15T23:54:17.547Z,14.90
2022-11-15T23:56:45.358Z,14.80
2022-11-15T23:59:13.190Z,14.80
